High Priority — A8NZ7 — position and weather

sailwx.info

Track history (hours):
 
Tides and Currents Weather Stations Pressure Air Temp Water Temp Dewpoint Dewpoint Depression Visibility Wind Speed Wind Dir Waves Ship Positions

High Priority

Last reported at 2015-Jan-21 01:33 UTC. Time now 2015-Jan-27 16:56 UTC.
Position N 01°24' E 103°58'.

Length 180 m; draft 6.3 m.

Type: Tanker. MMSI: 636013591.

Date/timePositionNaut miles runAvg speedWind from/ knotsBaromVisibWave heightAir tempDewpointWater temp
2015-Jan-21 01:33N 01°24' E 103°58'9 9.0
2015-Jan-21 00:33N 01°18' E 104°05'10 9.7
2015-Jan-20 23:33N 01°15' E 103°56'8 7.5
2015-Jan-20 22:33N 01°14' E 103°48'1 0.7
2015-Jan-20 21:31N 01°14' E 103°48'0 0.0
2015-Jan-20 19:19N 01°14' E 103°48'0 0.1
2015-Jan-20 18:28N 01°14' E 103°48'0 0.0
2015-Jan-20 17:22N 01°14' E 103°48'0 0.1
2015-Jan-20 16:28N 01°14' E 103°48'0 0.0
2015-Jan-20 15:28N 01°14' E 103°48'0 0.0
2015-Jan-20 14:10N 01°14' E 103°48'0 0.1
2015-Jan-20 13:25N 01°14' E 103°48'0 0.0
2015-Jan-20 12:31N 01°14' E 103°48'0 0.1
2015-Jan-20 11:28N 01°14' E 103°48'0 0.1
2015-Jan-20 10:28N 01°14' E 103°48'0 0.0
2015-Jan-20 07:10N 01°14' E 103°48'0 0.0
2015-Jan-20 06:28N 01°14' E 103°48'0 0.0
2015-Jan-20 04:31N 01°14' E 103°48'0 0.1
2015-Jan-20 03:16N 01°14' E 103°48'0 0.2
2015-Jan-20 02:19N 01°14' E 103°48'0 0.1
2015-Jan-20 01:22N 01°14' E 103°48'0 0.0
2015-Jan-20 00:31N 01°14' E 103°48'0 0.0
2015-Jan-19 23:31N 01°14' E 103°48'0 0.1
2015-Jan-19 22:31N 01°14' E 103°48'0 0.0
2015-Jan-19 21:10N 01°14' E 103°48'2 2.7
2015-Jan-19 20:34N 01°13' E 103°49'9 9.2
2015-Jan-19 19:32N 01°16' E 103°58'7 7.2
2015-Jan-19 18:34N 01°16' E 104°05'  
2015-Jan-17 11:28N 01°16' E 104°10'910.0
2015-Jan-17 10:33N 01°14' E 104°01'12 9.2
2015-Jan-17 09:16N 01°12' E 103°50'2 0.9
2015-Jan-17 07:32N 01°13' E 103°49'3 3.4
2015-Jan-17 06:33N 01°15' E 103°46'4 3.8
2015-Jan-17 05:32N 01°18' E 103°43'0 0.0
2015-Jan-17 04:26N 01°18' E 103°43'0 0.0
2015-Jan-17 03:32N 01°18' E 103°43'0 0.0
2015-Jan-17 02:20N 01°18' E 103°43'0 0.0
2015-Jan-17 01:32N 01°18' E 103°43'7 0.2
2015-Jan-15 10:16N 01°13' E 103°49'0 0.0
2015-Jan-15 05:25N 01°13' E 103°49'0 0.0
2015-Jan-15 03:31N 01°13' E 103°49'0 0.0
2015-Jan-15 01:25N 01°13' E 103°49'0 0.1
2015-Jan-15 00:31N 01°13' E 103°49'0 0.1
2015-Jan-14 23:25N 01°13' E 103°49'0 0.1
2015-Jan-14 22:31N 01°13' E 103°49'0 0.0
2015-Jan-14 20:31N 01°13' E 103°49'0 0.0
2015-Jan-14 18:19N 01°13' E 103°49'0 0.0
2015-Jan-14 16:19N 01°13' E 103°49'0 0.1
2015-Jan-14 14:31N 01°13' E 103°49'0 0.0
2015-Jan-14 12:19N 01°13' E 103°49'0 0.1
2015-Jan-14 10:22N 01°13' E 103°49'0 0.1
2015-Jan-14 09:25N 01°13' E 103°49'0 0.0
2015-Jan-14 07:13N 01°13' E 103°49'0 0.1
2015-Jan-14 06:28N 01°13' E 103°49'0 0.0
2015-Jan-14 04:25N 01°13' E 103°49'0 0.0
2015-Jan-14 03:25N 01°13' E 103°49'0 0.0
2015-Jan-14 00:31N 01°13' E 103°49'0 0.0
2015-Jan-13 23:25N 01°13' E 103°49'3 3.1
2015-Jan-13 22:29N 01°13' E 103°52'7 7.2
2015-Jan-13 21:32N 01°16' E 103°58'3 3.2
2015-Jan-13 20:33N 01°16' E 104°01'4 3.9
2015-Jan-13 19:33N 01°17' E 104°05'6 5.6
2015-Jan-13 18:33N 01°17' E 104°10'  
Track history (hours):
 
Tides and Currents Weather Stations Pressure Air Temp Water Temp Dewpoint Dewpoint Depression Visibility Wind Speed Wind Dir Waves Ship Positions

High Priority

Last reported at 2015-Jan-21 01:33 UTC. Time now 2015-Jan-27 16:56 UTC.
Position N 01°24' E 103°58'.

Length 180 m; draft 6.3 m.

Type: Tanker. MMSI: 636013591.

Date/timePositionNaut miles runAvg speedWind from/ knotsBaromVisibWave heightAir tempDewpointWater temp
2015-Jan-21 01:33N 01°24' E 103°58'9 9.0
2015-Jan-21 00:33N 01°18' E 104°05'10 9.7
2015-Jan-20 23:33N 01°15' E 103°56'8 7.5
2015-Jan-20 22:33N 01°14' E 103°48'1 0.7
2015-Jan-20 21:31N 01°14' E 103°48'0 0.0
2015-Jan-20 19:19N 01°14' E 103°48'0 0.1
2015-Jan-20 18:28N 01°14' E 103°48'0 0.0
2015-Jan-20 17:22N 01°14' E 103°48'0 0.1
2015-Jan-20 16:28N 01°14' E 103°48'0 0.0
2015-Jan-20 15:28N 01°14' E 103°48'0 0.0
2015-Jan-20 14:10N 01°14' E 103°48'0 0.1
2015-Jan-20 13:25N 01°14' E 103°48'0 0.0
2015-Jan-20 12:31N 01°14' E 103°48'0 0.1
2015-Jan-20 11:28N 01°14' E 103°48'0 0.1
2015-Jan-20 10:28N 01°14' E 103°48'0 0.0
2015-Jan-20 07:10N 01°14' E 103°48'0 0.0
2015-Jan-20 06:28N 01°14' E 103°48'0 0.0
2015-Jan-20 04:31N 01°14' E 103°48'0 0.1
2015-Jan-20 03:16N 01°14' E 103°48'0 0.2
2015-Jan-20 02:19N 01°14' E 103°48'0 0.1
2015-Jan-20 01:22N 01°14' E 103°48'0 0.0
2015-Jan-20 00:31N 01°14' E 103°48'0 0.0
2015-Jan-19 23:31N 01°14' E 103°48'0 0.1
2015-Jan-19 22:31N 01°14' E 103°48'0 0.0
2015-Jan-19 21:10N 01°14' E 103°48'2 2.7
2015-Jan-19 20:34N 01°13' E 103°49'9 9.2
2015-Jan-19 19:32N 01°16' E 103°58'7 7.2
2015-Jan-19 18:34N 01°16' E 104°05'  
2015-Jan-17 11:28N 01°16' E 104°10'910.0
2015-Jan-17 10:33N 01°14' E 104°01'12 9.2
2015-Jan-17 09:16N 01°12' E 103°50'2 0.9
2015-Jan-17 07:32N 01°13' E 103°49'3 3.4
2015-Jan-17 06:33N 01°15' E 103°46'4 3.8
2015-Jan-17 05:32N 01°18' E 103°43'0 0.0
2015-Jan-17 04:26N 01°18' E 103°43'0 0.0
2015-Jan-17 03:32N 01°18' E 103°43'0 0.0
2015-Jan-17 02:20N 01°18' E 103°43'0 0.0
2015-Jan-17 01:32N 01°18' E 103°43'7 0.2
2015-Jan-15 10:16N 01°13' E 103°49'0 0.0
2015-Jan-15 05:25N 01°13' E 103°49'0 0.0
2015-Jan-15 03:31N 01°13' E 103°49'0 0.0
2015-Jan-15 01:25N 01°13' E 103°49'0 0.1
2015-Jan-15 00:31N 01°13' E 103°49'0 0.1
2015-Jan-14 23:25N 01°13' E 103°49'0 0.1
2015-Jan-14 22:31N 01°13' E 103°49'0 0.0
2015-Jan-14 20:31N 01°13' E 103°49'0 0.0
2015-Jan-14 18:19N 01°13' E 103°49'0 0.0
2015-Jan-14 16:19N 01°13' E 103°49'0 0.1
2015-Jan-14 14:31N 01°13' E 103°49'0 0.0
2015-Jan-14 12:19N 01°13' E 103°49'0 0.1
2015-Jan-14 10:22N 01°13' E 103°49'0 0.1
2015-Jan-14 09:25N 01°13' E 103°49'0 0.0
2015-Jan-14 07:13N 01°13' E 103°49'0 0.1
2015-Jan-14 06:28N 01°13' E 103°49'0 0.0
2015-Jan-14 04:25N 01°13' E 103°49'0 0.0
2015-Jan-14 03:25N 01°13' E 103°49'0 0.0
2015-Jan-14 00:31N 01°13' E 103°49'0 0.0
2015-Jan-13 23:25N 01°13' E 103°49'3 3.1
2015-Jan-13 22:29N 01°13' E 103°52'7 7.2
2015-Jan-13 21:32N 01°16' E 103°58'3 3.2
2015-Jan-13 20:33N 01°16' E 104°01'4 3.9
2015-Jan-13 19:33N 01°17' E 104°05'6 5.6
2015-Jan-13 18:33N 01°17' E 104°10'  

Dump ship's entire track history